createdAt,value
2022-11-16T00:00:13.723Z,27.75
2022-11-16T00:00:35.618Z,26.58
2022-11-16T00:01:02.063Z,25.33
2022-11-16T00:01:26.291Z,26.35
2022-11-16T00:01:48.367Z,26.58
2022-11-16T00:02:11.235Z,25.63
2022-11-16T00:02:33.137Z,25.23
2022-11-16T00:02:55.084Z,26.35
2022-11-16T00:03:17.257Z,26.20
2022-11-16T00:03:39.381Z,26.65
2022-11-16T00:04:02.337Z,26.17
2022-11-16T00:04:24.176Z,25.55
2022-11-16T00:04:46.408Z,26.65
2022-11-16T00:05:08.540Z,25.95
2022-11-16T00:05:30.712Z,26.90
2022-11-16T00:05:59.765Z,25.73
2022-11-16T00:06:22.696Z,26.00
2022-11-16T00:06:45.832Z,25.05
2022-11-16T00:07:07.784Z,24.67
2022-11-16T00:07:29.849Z,25.30
2022-11-16T00:07:52.063Z,25.73
2022-11-16T00:08:13.863Z,26.25
2022-11-16T00:08:42.432Z,25.73
2022-11-16T00:09:22.769Z,26.35
2022-11-16T00:09:44.521Z,25.77
2022-11-16T00:10:06.973Z,25.77
2022-11-16T00:10:28.736Z,26.15
2022-11-16T00:10:50.645Z,25.83
2022-11-16T00:11:14.887Z,25.90
2022-11-16T00:11:38.232Z,27.20
2022-11-16T00:12:02.253Z,26.15
2022-11-16T00:12:24.070Z,25.73
2022-11-16T00:12:45.892Z,25.23
2022-11-16T00:13:07.621Z,25.55
2022-11-16T00:13:29.388Z,25.70
2022-11-16T00:13:51.558Z,25.50
2022-11-16T00:14:13.419Z,25.38
2022-11-16T00:14:36.279Z,24.30
2022-11-16T00:14:58.095Z,24.50
2022-11-16T00:15:20.341Z,25.15
2022-11-16T00:15:42.094Z,25.00
2022-11-16T00:16:04.970Z,24.45
2022-11-16T00:16:27.310Z,24.00
2022-11-16T00:16:49.535Z,23.67
2022-11-16T00:17:11.280Z,24.27
2022-11-16T00:17:33.315Z,24.83
2022-11-16T00:17:55.070Z,25.10
2022-11-16T00:18:16.813Z,24.05
2022-11-16T00:18:38.579Z,24.42
2022-11-16T00:19:03.383Z,24.85
2022-11-16T00:19:25.991Z,25.08
2022-11-16T00:19:48.575Z,24.95
2022-11-16T00:20:10.829Z,24.65
2022-11-16T00:20:32.637Z,25.05
2022-11-16T00:20:54.659Z,24.05
2022-11-16T00:21:16.640Z,24.52
2022-11-16T00:21:39.882Z,24.15
2022-11-16T00:22:01.743Z,24.25
2022-11-16T00:22:23.525Z,24.25
2022-11-16T00:22:45.280Z,24.17
2022-11-16T00:23:07.468Z,23.70
2022-11-16T00:23:29.224Z,24.63
2022-11-16T00:23:51.567Z,24.50
2022-11-16T00:24:15.286Z,24.45
2022-11-16T00:24:37.456Z,24.30
2022-11-16T00:24:59.255Z,24.92
2022-11-16T00:25:21.066Z,23.63
2022-11-16T00:25:44.683Z,23.85
2022-11-16T00:26:08.789Z,23.67
2022-11-16T00:26:30.615Z,23.15
2022-11-16T00:26:54.591Z,23.95
2022-11-16T00:27:16.464Z,23.38
2022-11-16T00:27:38.253Z,23.45
2022-11-16T00:28:00.475Z,24.83
2022-11-16T00:28:22.358Z,24.77
2022-11-16T00:28:44.195Z,24.83
2022-11-16T00:29:07.528Z,24.60
2022-11-16T00:29:29.306Z,24.13
2022-11-16T00:29:51.056Z,23.83
2022-11-16T00:30:13.316Z,23.77
2022-11-16T00:30:35.121Z,23.70
2022-11-16T00:31:00.860Z,23.58
2022-11-16T00:31:23.457Z,24.25
2022-11-16T00:31:46.162Z,23.70
2022-11-16T00:32:08.142Z,23.85
2022-11-16T00:32:29.956Z,23.95
2022-11-16T00:32:52.085Z,24.33
2022-11-16T00:33:16.436Z,23.83
2022-11-16T00:33:39.446Z,24.30
2022-11-16T00:34:01.229Z,24.52
2022-11-16T00:34:24.251Z,23.60
2022-11-16T00:34:45.982Z,22.42
2022-11-16T00:35:08.518Z,23.30
2022-11-16T00:35:30.489Z,22.85
2022-11-16T00:35:52.293Z,22.70
2022-11-16T00:36:14.659Z,22.45
2022-11-16T00:36:36.500Z,22.42
2022-11-16T00:36:58.358Z,23.92
2022-11-16T00:37:20.102Z,22.75
2022-11-16T00:37:41.901Z,22.23
2022-11-16T00:38:04.067Z,22.17
2022-11-16T00:38:25.899Z,22.27
2022-11-16T00:38:48.710Z,21.95
2022-11-16T00:39:15.047Z,21.23
2022-11-16T00:39:37.316Z,21.65
2022-11-16T00:40:00.354Z,21.65
2022-11-16T00:40:22.314Z,22.15
2022-11-16T00:40:44.221Z,20.98
2022-11-16T00:41:06.485Z,22.05
2022-11-16T00:41:28.613Z,22.08
2022-11-16T00:41:51.059Z,21.67
2022-11-16T00:42:13.399Z,22.00
2022-11-16T00:42:35.140Z,21.88
2022-11-16T00:42:56.956Z,21.83
2022-11-16T00:43:18.727Z,22.02
2022-11-16T00:43:40.515Z,21.55
2022-11-16T00:44:02.724Z,20.83
2022-11-16T00:44:24.870Z,20.88
2022-11-16T00:44:47.037Z,20.83
2022-11-16T00:45:09.517Z,20.73
2022-11-16T00:45:31.718Z,20.60
2022-11-16T00:45:54.057Z,20.77
2022-11-16T00:46:15.872Z,20.63
2022-11-16T00:46:38.199Z,20.10
2022-11-16T00:46:59.947Z,20.17
2022-11-16T00:47:22.583Z,20.85
2022-11-16T00:47:44.563Z,20.67
2022-11-16T00:48:06.544Z,20.27
2022-11-16T00:48:28.765Z,20.23
2022-11-16T00:48:50.916Z,19.85
2022-11-16T00:49:12.705Z,20.05
2022-11-16T00:49:34.500Z,20.60
2022-11-16T00:49:56.257Z,20.42
2022-11-16T00:50:18.195Z,20.30
2022-11-16T00:50:40.222Z,19.50
2022-11-16T00:51:01.983Z,19.90
2022-11-16T00:51:23.776Z,20.73
2022-11-16T00:51:45.514Z,20.48
2022-11-16T00:52:07.300Z,20.33
2022-11-16T00:52:29.123Z,20.00
2022-11-16T00:52:50.958Z,19.50
2022-11-16T00:53:14.726Z,19.52
2022-11-16T00:53:36.859Z,19.83
2022-11-16T00:53:58.612Z,19.33
2022-11-16T00:54:20.354Z,19.60
2022-11-16T00:54:42.515Z,20.10
2022-11-16T00:55:04.619Z,20.00
2022-11-16T00:55:26.429Z,20.13
2022-11-16T00:55:49.094Z,20.23
2022-11-16T00:56:10.893Z,20.02
2022-11-16T00:56:32.801Z,19.30
2022-11-16T00:56:54.531Z,19.42
2022-11-16T00:57:16.309Z,19.85
2022-11-16T00:57:38.056Z,20.08
2022-11-16T00:58:00.045Z,19.77
2022-11-16T00:58:22.104Z,18.73
2022-11-16T00:58:43.871Z,20.48
2022-11-16T00:59:06.006Z,20.73
2022-11-16T00:59:27.820Z,19.52
2022-11-16T00:59:49.741Z,19.80
2022-11-16T01:00:11.989Z,20.23
2022-11-16T01:00:33.775Z,20.05
2022-11-16T01:00:55.664Z,20.27
2022-11-16T01:01:17.994Z,20.42
2022-11-16T01:01:39.861Z,20.00
2022-11-16T01:02:01.748Z,19.77
2022-11-16T01:02:23.550Z,19.30
2022-11-16T01:02:45.364Z,20.25
2022-11-16T01:03:07.350Z,20.05
2022-11-16T01:03:29.488Z,20.08
2022-11-16T01:03:51.307Z,20.33
2022-11-16T01:04:13.092Z,20.33
2022-11-16T01:04:34.901Z,19.67
2022-11-16T01:04:57.110Z,20.48
2022-11-16T01:05:19.101Z,20.15
2022-11-16T01:05:40.934Z,20.80
2022-11-16T01:06:07.232Z,20.50
2022-11-16T01:06:29.429Z,20.13
2022-11-16T01:06:51.697Z,19.77
2022-11-16T01:07:13.626Z,19.30
2022-11-16T01:07:39.653Z,19.05
2022-11-16T01:08:01.848Z,20.30
2022-11-16T01:08:23.986Z,19.85
2022-11-16T01:08:46.262Z,18.83
2022-11-16T01:09:08.008Z,19.50
2022-11-16T01:09:29.808Z,20.05
2022-11-16T01:09:51.579Z,19.65
2022-11-16T01:10:15.562Z,18.95
2022-11-16T01:10:39.831Z,19.85
2022-11-16T01:11:20.529Z,19.20
2022-11-16T01:12:00.986Z,19.27
2022-11-16T01:12:22.819Z,20.10
2022-11-16T01:12:46.349Z,19.60
2022-11-16T01:13:08.087Z,19.15
2022-11-16T01:13:29.808Z,20.48
2022-11-16T01:13:52.215Z,20.17
2022-11-16T01:14:13.992Z,20.20
2022-11-16T01:14:40.248Z,20.20
2022-11-16T01:15:02.417Z,19.83
2022-11-16T01:15:26.138Z,20.30
2022-11-16T01:15:48.674Z,19.30
2022-11-16T01:16:14.419Z,19.60
2022-11-16T01:16:36.389Z,19.98
2022-11-16T01:16:58.151Z,19.20
2022-11-16T01:17:19.901Z,19.25
2022-11-16T01:17:42.091Z,19.55
2022-11-16T01:18:04.267Z,20.35
2022-11-16T01:18:26.047Z,20.20
2022-11-16T01:18:48.808Z,20.27
2022-11-16T01:19:10.808Z,20.20
2022-11-16T01:19:32.781Z,19.90
2022-11-16T01:19:54.627Z,18.33
2022-11-16T01:20:19.213Z,19.15
2022-11-16T01:20:41.648Z,19.02
2022-11-16T01:21:06.514Z,19.35
2022-11-16T01:21:28.717Z,19.88
2022-11-16T01:21:50.462Z,20.30
2022-11-16T01:22:12.209Z,19.63
2022-11-16T01:22:37.374Z,19.63
2022-11-16T01:22:59.156Z,19.23
2022-11-16T01:23:20.900Z,19.40
2022-11-16T01:23:43.226Z,18.40
2022-11-16T01:24:05.350Z,19.02
2022-11-16T01:24:27.931Z,19.52
2022-11-16T01:24:49.666Z,20.23
2022-11-16T01:25:12.544Z,19.63
2022-11-16T01:25:34.681Z,20.73
2022-11-16T01:25:58.490Z,20.25
2022-11-16T01:26:21.456Z,18.65
2022-11-16T01:26:43.325Z,18.38
2022-11-16T01:27:05.090Z,19.05
2022-11-16T01:27:27.666Z,19.48
2022-11-16T01:27:49.536Z,20.40
2022-11-16T01:28:11.658Z,19.23
2022-11-16T01:28:33.673Z,18.20
2022-11-16T01:28:55.644Z,18.92
2022-11-16T01:29:17.831Z,19.20
2022-11-16T01:29:40.000Z,19.70
2022-11-16T01:30:01.757Z,19.30
2022-11-16T01:30:23.578Z,19.02
2022-11-16T01:30:48.845Z,19.30
2022-11-16T01:31:11.213Z,19.52
2022-11-16T01:31:33.057Z,19.17
2022-11-16T01:31:55.890Z,18.95
2022-11-16T01:32:17.774Z,18.77
2022-11-16T01:32:39.949Z,18.15
2022-11-16T01:33:01.699Z,19.75
2022-11-16T01:33:23.957Z,19.02
2022-11-16T01:33:45.837Z,20.13
2022-11-16T01:34:07.622Z,20.48
2022-11-16T01:34:29.769Z,19.50
2022-11-16T01:34:51.983Z,19.58
2022-11-16T01:35:17.630Z,20.35
2022-11-16T01:35:43.464Z,19.92
2022-11-16T01:36:14.715Z,19.90
2022-11-16T01:36:36.830Z,19.77
2022-11-16T01:36:58.668Z,19.85
2022-11-16T01:37:20.662Z,20.63
2022-11-16T01:37:42.506Z,20.30
2022-11-16T01:38:05.061Z,19.45
2022-11-16T01:38:29.700Z,19.70
2022-11-16T01:38:52.381Z,19.35
2022-11-16T01:39:14.971Z,19.75
2022-11-16T01:39:37.190Z,19.75
2022-11-16T01:39:59.199Z,19.85
2022-11-16T01:40:21.356Z,20.17
2022-11-16T01:40:43.170Z,18.92
2022-11-16T01:41:04.985Z,18.67
2022-11-16T01:41:27.218Z,20.05
2022-11-16T01:41:49.465Z,20.10
2022-11-16T01:42:18.095Z,19.50
2022-11-16T01:42:40.626Z,20.17
2022-11-16T01:43:02.366Z,20.42
2022-11-16T01:43:27.089Z,20.60
2022-11-16T01:43:57.551Z,19.90
2022-11-16T01:44:34.299Z,20.27
2022-11-16T01:45:18.874Z,20.70
2022-11-16T01:45:42.438Z,19.70
2022-11-16T01:46:04.195Z,19.98
2022-11-16T01:46:26.731Z,20.67
2022-11-16T01:46:48.858Z,20.33
2022-11-16T01:47:14.671Z,20.13
2022-11-16T01:47:36.876Z,19.73
2022-11-16T01:47:58.783Z,19.60
2022-11-16T01:48:26.385Z,19.42
2022-11-16T01:48:51.942Z,19.75
2022-11-16T01:49:14.953Z,20.40
2022-11-16T01:49:38.781Z,20.05
2022-11-16T01:50:11.531Z,19.50
2022-11-16T01:50:33.810Z,20.00
2022-11-16T01:50:57.750Z,19.75
2022-11-16T01:51:19.973Z,19.98
2022-11-16T01:51:55.415Z,20.27
2022-11-16T01:52:21.514Z,21.05
2022-11-16T01:52:46.927Z,20.58
2022-11-16T01:53:09.704Z,21.77
2022-11-16T01:53:31.654Z,21.70
2022-11-16T01:53:53.790Z,21.58
2022-11-16T01:54:16.093Z,21.85
2022-11-16T01:54:43.893Z,21.27
2022-11-16T01:55:06.267Z,21.15
2022-11-16T01:55:29.427Z,21.05
2022-11-16T01:55:54.277Z,21.00
2022-11-16T01:56:16.287Z,21.88
2022-11-16T01:56:39.524Z,22.23
2022-11-16T01:57:05.613Z,21.23
2022-11-16T01:57:32.590Z,21.17
2022-11-16T01:57:55.747Z,21.15
2022-11-16T01:58:23.267Z,20.27
2022-11-16T01:58:45.957Z,21.83
2022-11-16T01:59:08.171Z,21.85
2022-11-16T01:59:30.554Z,21.10
2022-11-16T01:59:56.641Z,20.85
2022-11-16T02:00:19.351Z,21.98
2022-11-16T02:00:41.260Z,21.88
2022-11-16T02:01:03.858Z,22.52
2022-11-16T02:01:25.798Z,22.10
2022-11-16T02:01:47.978Z,21.92
2022-11-16T02:02:09.756Z,21.60
2022-11-16T02:02:31.540Z,20.77
2022-11-16T02:02:53.515Z,21.38
2022-11-16T02:03:18.987Z,21.55
2022-11-16T02:03:40.841Z,21.92
2022-11-16T02:04:02.995Z,21.23
2022-11-16T02:04:24.768Z,20.77
2022-11-16T02:04:48.952Z,21.65
2022-11-16T02:07:19.470Z,21.92
2022-11-16T02:08:39.262Z,21.60
2022-11-16T02:09:20.160Z,21.85
2022-11-16T02:09:59.794Z,21.08
2022-11-16T02:10:28.243Z,23.30
2022-11-16T02:10:52.834Z,22.92
2022-11-16T02:11:53.325Z,21.80
2022-11-16T02:12:17.920Z,23.40
2022-11-16T02:12:57.659Z,22.90
2022-11-16T02:13:35.653Z,22.65
2022-11-16T02:14:10.816Z,23.40
2022-11-16T02:14:58.574Z,22.58
2022-11-16T02:15:28.276Z,22.55
2022-11-16T02:16:12.242Z,22.42
2022-11-16T02:16:52.761Z,22.77
2022-11-16T02:17:24.731Z,22.13
2022-11-16T02:18:26.288Z,22.58
2022-11-16T02:19:16.541Z,22.45
2022-11-16T02:20:11.579Z,22.15
2022-11-16T02:20:52.154Z,23.95
2022-11-16T02:21:59.313Z,23.00
2022-11-16T02:22:30.251Z,22.98
2022-11-16T02:23:21.467Z,22.88
2022-11-16T02:24:02.561Z,24.10
2022-11-16T02:24:26.831Z,23.80
2022-11-16T02:24:59.138Z,23.45
2022-11-16T02:25:30.003Z,24.73
2022-11-16T02:26:01.364Z,22.95
2022-11-16T02:26:26.102Z,23.42
2022-11-16T02:27:16.600Z,23.33
2022-11-16T02:27:59.368Z,23.30
2022-11-16T02:28:54.272Z,23.25
2022-11-16T02:29:37.685Z,23.33
2022-11-16T02:29:59.506Z,24.45
2022-11-16T02:30:22.124Z,23.55
2022-11-16T02:30:46.986Z,23.67
2022-11-16T02:31:13.747Z,23.33
2022-11-16T02:31:45.789Z,23.70
2022-11-16T02:32:19.274Z,23.23
2022-11-16T02:32:55.412Z,22.50
2022-11-16T02:33:20.941Z,23.13
2022-11-16T02:33:46.746Z,23.02
2022-11-16T02:34:11.706Z,22.63
2022-11-16T02:34:41.867Z,23.25
2022-11-16T02:35:27.029Z,22.67
2022-11-16T02:35:51.405Z,22.90
2022-11-16T02:36:17.798Z,22.20
2022-11-16T02:36:41.772Z,22.13
2022-11-16T02:37:05.729Z,22.75
2022-11-16T02:37:31.590Z,21.58
2022-11-16T02:38:05.147Z,22.20
2022-11-16T02:38:30.569Z,21.90
2022-11-16T02:39:02.179Z,22.15
2022-11-16T02:39:28.507Z,22.67
2022-11-16T02:39:54.575Z,22.52
2022-11-16T02:40:20.262Z,22.00
2022-11-16T02:40:44.834Z,21.98
2022-11-16T02:41:14.137Z,22.92
2022-11-16T02:41:40.462Z,22.15
2022-11-16T02:42:04.068Z,21.40
2022-11-16T02:42:49.516Z,21.88
2022-11-16T02:43:18.497Z,22.67
2022-11-16T02:43:43.432Z,22.33
2022-11-16T02:44:19.735Z,23.02
2022-11-16T02:44:44.497Z,21.92
2022-11-16T02:45:09.859Z,22.02
2022-11-16T02:45:36.469Z,20.92
2022-11-16T02:46:02.404Z,21.20
2022-11-16T02:46:31.005Z,21.33
2022-11-16T02:46:58.978Z,22.77
2022-11-16T02:47:24.237Z,21.70
2022-11-16T02:47:47.646Z,22.60
2022-11-16T02:48:28.185Z,23.23
2022-11-16T02:48:53.641Z,21.92
2022-11-16T02:49:18.875Z,22.63
2022-11-16T02:49:43.209Z,22.00
2022-11-16T02:50:07.658Z,22.60
2022-11-16T02:50:30.978Z,22.40
2022-11-16T02:50:54.073Z,21.95
2022-11-16T02:51:17.553Z,21.88
2022-11-16T02:51:40.845Z,22.13
2022-11-16T02:52:03.273Z,21.63
2022-11-16T02:52:26.714Z,21.65
2022-11-16T02:52:48.863Z,22.02
2022-11-16T02:53:10.998Z,22.75
2022-11-16T02:53:51.541Z,22.17
2022-11-16T02:54:19.469Z,21.77
2022-11-16T02:54:41.279Z,21.38
2022-11-16T02:55:03.727Z,21.10
2022-11-16T02:55:27.378Z,21.63
2022-11-16T02:55:49.620Z,22.40
2022-11-16T02:56:13.599Z,22.13
2022-11-16T02:56:55.722Z,20.80
2022-11-16T02:57:37.607Z,22.05
2022-11-16T02:58:02.651Z,22.42
2022-11-16T02:58:26.075Z,22.00
2022-11-16T02:58:48.190Z,22.25
2022-11-16T02:59:13.085Z,21.55
2022-11-16T02:59:40.884Z,21.67
2022-11-16T03:00:04.675Z,21.60
2022-11-16T03:00:29.213Z,22.30
2022-11-16T03:01:05.550Z,21.98
2022-11-16T03:01:34.452Z,21.42
2022-11-16T03:02:25.094Z,21.52
2022-11-16T03:02:56.981Z,20.55
2022-11-16T03:03:29.671Z,21.00
2022-11-16T03:03:58.822Z,21.08
2022-11-16T03:04:24.002Z,21.77
2022-11-16T03:04:52.431Z,21.02
2022-11-16T03:05:32.136Z,21.23
2022-11-16T03:05:59.174Z,21.35
2022-11-16T03:06:21.326Z,21.58
2022-11-16T03:06:47.870Z,20.95
2022-11-16T03:07:12.783Z,20.55
2022-11-16T03:07:59.389Z,19.95
2022-11-16T03:08:33.061Z,20.08
2022-11-16T03:09:04.409Z,20.08
2022-11-16T03:09:28.671Z,20.98
2022-11-16T03:09:52.063Z,21.27
2022-11-16T03:10:35.898Z,22.00
2022-11-16T03:11:20.358Z,19.90
2022-11-16T03:12:00.741Z,20.90
2022-11-16T03:12:28.900Z,21.35
2022-11-16T03:12:51.023Z,20.15
2022-11-16T03:13:15.874Z,20.73
2022-11-16T03:13:39.498Z,20.65
2022-11-16T03:14:06.721Z,20.98
2022-11-16T03:14:43.769Z,20.70
2022-11-16T03:15:06.567Z,20.00
2022-11-16T03:15:29.573Z,20.90
2022-11-16T03:15:54.726Z,20.92
2022-11-16T03:16:21.637Z,20.42
2022-11-16T03:17:05.432Z,21.08
2022-11-16T03:17:46.449Z,20.35
2022-11-16T03:18:09.299Z,20.42
2022-11-16T03:18:31.476Z,19.95
2022-11-16T03:18:56.580Z,20.63
2022-11-16T03:19:25.843Z,20.27
2022-11-16T03:20:09.150Z,19.77
2022-11-16T03:20:33.932Z,19.38
2022-11-16T03:21:29.476Z,19.42
2022-11-16T03:22:07.182Z,20.38
2022-11-16T03:22:43.715Z,19.27
2022-11-16T03:23:10.863Z,20.15
2022-11-16T03:23:33.150Z,19.65
2022-11-16T03:23:54.977Z,19.33
2022-11-16T03:24:16.914Z,19.27
2022-11-16T03:24:39.155Z,18.80
2022-11-16T03:25:00.985Z,19.23
2022-11-16T03:25:25.890Z,18.70
2022-11-16T03:25:55.604Z,18.88
2022-11-16T03:26:23.057Z,19.35
2022-11-16T03:26:51.634Z,19.92
2022-11-16T03:27:37.141Z,19.38
2022-11-16T03:28:01.732Z,20.23
2022-11-16T03:28:43.501Z,19.27
2022-11-16T03:29:28.553Z,18.80
2022-11-16T03:30:23.307Z,19.43
2022-11-16T03:31:02.599Z,18.85
2022-11-16T03:31:29.720Z,18.42
2022-11-16T03:31:57.168Z,18.92
2022-11-16T03:32:45.983Z,19.60
2022-11-16T03:33:17.426Z,18.77
2022-11-16T03:33:48.548Z,18.20
2022-11-16T03:34:16.233Z,19.42
2022-11-16T03:34:41.525Z,19.35
2022-11-16T03:35:10.757Z,19.50
2022-11-16T03:35:59.215Z,18.80
2022-11-16T03:36:24.388Z,18.77
2022-11-16T03:36:50.005Z,18.52
2022-11-16T03:37:12.741Z,18.13
2022-11-16T03:37:36.270Z,18.70
2022-11-16T03:37:59.959Z,17.70
2022-11-16T03:38:24.646Z,18.13
2022-11-16T03:38:47.856Z,18.90
2022-11-16T03:39:12.556Z,18.00
2022-11-16T03:39:38.514Z,18.95
2022-11-16T03:40:01.959Z,18.27
2022-11-16T03:40:26.267Z,18.63
2022-11-16T03:40:50.108Z,18.73
2022-11-16T03:41:14.021Z,18.88
2022-11-16T03:41:40.879Z,18.48
2022-11-16T03:42:05.108Z,18.15
2022-11-16T03:42:27.699Z,17.45
2022-11-16T03:42:50.081Z,18.05
2022-11-16T03:43:12.085Z,18.20
2022-11-16T03:43:34.662Z,18.08
2022-11-16T03:43:57.771Z,17.88
2022-11-16T03:44:20.747Z,17.85
2022-11-16T03:44:43.809Z,18.58
2022-11-16T03:45:06.772Z,19.17
2022-11-16T03:45:30.091Z,18.33
2022-11-16T03:45:52.140Z,17.52
2022-11-16T03:46:14.958Z,18.25
2022-11-16T03:46:37.031Z,18.20
2022-11-16T03:46:59.080Z,18.42
2022-11-16T03:47:20.994Z,18.17
2022-11-16T03:47:43.264Z,18.10
2022-11-16T03:48:06.986Z,18.40
2022-11-16T03:48:40.036Z,17.77
2022-11-16T03:49:02.252Z,17.83
2022-11-16T03:49:24.288Z,17.90
2022-11-16T03:49:47.646Z,17.38
2022-11-16T03:50:10.235Z,16.73
2022-11-16T03:50:32.027Z,18.20
2022-11-16T03:50:53.770Z,18.17
2022-11-16T03:51:15.886Z,17.20
2022-11-16T03:51:38.023Z,17.02
2022-11-16T03:51:59.815Z,16.83
2022-11-16T03:52:21.940Z,17.15
2022-11-16T03:52:43.789Z,17.15
2022-11-16T03:53:05.588Z,17.30
2022-11-16T03:53:27.303Z,16.83
2022-11-16T03:53:49.411Z,16.58
2022-11-16T03:54:11.155Z,16.83
2022-11-16T03:54:33.075Z,17.20
2022-11-16T03:54:54.792Z,16.77
2022-11-16T03:55:16.544Z,16.85
2022-11-16T03:55:38.287Z,17.30
2022-11-16T03:56:00.475Z,16.25
2022-11-16T03:56:22.594Z,16.05
2022-11-16T03:56:44.339Z,16.75
2022-11-16T03:57:06.075Z,16.50
2022-11-16T03:57:27.977Z,16.73
2022-11-16T03:57:49.768Z,16.23
2022-11-16T03:58:11.936Z,16.13
2022-11-16T03:58:33.874Z,15.90
2022-11-16T03:58:56.237Z,15.95
2022-11-16T03:59:17.938Z,16.00
2022-11-16T03:59:39.632Z,15.98
2022-11-16T04:00:01.696Z,16.17
2022-11-16T04:00:23.452Z,16.05
2022-11-16T04:00:45.988Z,16.58
2022-11-16T04:01:08.216Z,16.50
2022-11-16T04:01:30.441Z,15.43
2022-11-16T04:01:52.698Z,15.80
2022-11-16T04:02:14.925Z,16.00
2022-11-16T04:02:36.696Z,15.55
2022-11-16T04:02:58.413Z,16.00
2022-11-16T04:03:21.033Z,15.85
2022-11-16T04:03:43.213Z,15.43
2022-11-16T04:04:05.476Z,15.43
2022-11-16T04:04:45.767Z,15.13
2022-11-16T04:05:43.431Z,15.18
2022-11-16T04:06:24.091Z,15.73
2022-11-16T04:07:04.190Z,15.98
2022-11-16T04:07:44.705Z,15.13
2022-11-16T04:08:25.162Z,15.40
2022-11-16T04:09:05.442Z,16.15
2022-11-16T04:09:45.767Z,16.05
2022-11-16T04:10:28.702Z,15.98
2022-11-16T04:11:09.181Z,16.42
2022-11-16T04:11:50.181Z,15.90
2022-11-16T04:12:30.642Z,15.77
2022-11-16T04:13:11.485Z,15.25
2022-11-16T04:13:52.517Z,15.57
2022-11-16T04:14:35.951Z,15.93
2022-11-16T04:15:17.966Z,16.40
2022-11-16T04:15:58.239Z,15.43
2022-11-16T04:16:38.817Z,15.90
2022-11-16T04:17:19.196Z,15.43
2022-11-16T04:17:59.844Z,15.20
2022-11-16T04:18:40.767Z,15.35
2022-11-16T04:19:21.143Z,15.80
2022-11-16T04:20:01.567Z,15.45
2022-11-16T04:20:53.223Z,15.07
2022-11-16T04:21:38.598Z,16.45
2022-11-16T04:22:23.260Z,16.38
2022-11-16T04:23:09.205Z,16.58
2022-11-16T04:23:49.589Z,15.70
2022-11-16T04:24:17.023Z,17.10
2022-11-16T04:24:43.690Z,16.95
2022-11-16T04:25:19.052Z,16.55
2022-11-16T04:25:43.686Z,16.15
2022-11-16T04:26:08.374Z,16.98
2022-11-16T04:26:55.899Z,16.40
2022-11-16T04:27:37.069Z,16.67
2022-11-16T04:28:14.237Z,16.45
2022-11-16T04:28:37.068Z,16.45
2022-11-16T04:28:59.389Z,16.60
2022-11-16T04:29:21.198Z,16.20
2022-11-16T04:29:43.267Z,15.77
2022-11-16T04:30:05.720Z,17.17
2022-11-16T04:30:47.590Z,16.77
2022-11-16T04:31:28.501Z,15.82
2022-11-16T04:32:08.652Z,16.42
2022-11-16T04:32:48.900Z,16.52
2022-11-16T04:33:29.819Z,16.13
2022-11-16T04:34:11.293Z,16.58
2022-11-16T04:34:51.672Z,16.60
2022-11-16T04:35:32.054Z,15.85
2022-11-16T04:36:16.549Z,17.25
2022-11-16T04:37:00.562Z,15.30
2022-11-16T04:37:41.018Z,16.10
2022-11-16T04:38:02.716Z,16.20
2022-11-16T04:38:24.877Z,15.77
2022-11-16T04:38:46.579Z,15.43
2022-11-16T04:39:08.430Z,16.13
2022-11-16T04:39:30.155Z,15.35
2022-11-16T04:39:51.879Z,15.90
2022-11-16T04:40:14.224Z,16.17
2022-11-16T04:40:36.031Z,16.17
2022-11-16T04:40:57.757Z,15.70
2022-11-16T04:41:38.179Z,15.75
2022-11-16T04:42:15.258Z,15.55
2022-11-16T04:42:37.004Z,15.50
2022-11-16T04:43:00.407Z,15.27
2022-11-16T04:43:22.543Z,15.23
2022-11-16T04:43:44.255Z,15.63
2022-11-16T04:44:06.126Z,15.77
2022-11-16T04:44:50.944Z,15.27
2022-11-16T04:45:31.529Z,15.35
2022-11-16T04:46:11.822Z,14.57
2022-11-16T04:46:52.348Z,15.07
2022-11-16T04:47:14.069Z,15.70
2022-11-16T04:47:35.917Z,15.85
2022-11-16T04:47:57.716Z,15.25
2022-11-16T04:48:20.552Z,14.93
2022-11-16T04:48:42.236Z,14.50
2022-11-16T04:49:04.357Z,15.10
2022-11-16T04:49:26.485Z,15.15
2022-11-16T04:49:48.285Z,14.77
2022-11-16T04:50:10.353Z,15.07
2022-11-16T04:50:32.551Z,15.07
2022-11-16T04:50:54.667Z,15.40
2022-11-16T04:51:16.385Z,14.95
2022-11-16T04:51:38.584Z,15.00
2022-11-16T04:52:00.582Z,14.73
2022-11-16T04:52:22.316Z,15.27
2022-11-16T04:52:44.041Z,15.25
2022-11-16T04:53:06.670Z,15.45
2022-11-16T04:53:28.393Z,14.82
2022-11-16T04:53:50.091Z,14.80
2022-11-16T04:54:12.338Z,14.77
2022-11-16T04:54:34.131Z,13.98
2022-11-16T04:54:56.317Z,13.48
2022-11-16T04:55:18.122Z,13.25
2022-11-16T04:55:39.834Z,13.48
2022-11-16T04:56:01.523Z,13.80
2022-11-16T04:56:23.211Z,14.20
2022-11-16T04:56:44.980Z,14.20
2022-11-16T04:57:06.728Z,13.68
2022-11-16T04:57:28.551Z,13.23
2022-11-16T04:57:50.354Z,14.00
2022-11-16T04:58:12.082Z,13.73
2022-11-16T04:58:34.096Z,13.13
2022-11-16T04:58:56.008Z,14.65
2022-11-16T04:59:18.193Z,14.35
2022-11-16T04:59:40.325Z,14.15
2022-11-16T05:00:02.644Z,14.68
2022-11-16T05:00:24.935Z,15.07
2022-11-16T05:00:46.677Z,14.57
2022-11-16T05:01:08.812Z,14.10
2022-11-16T05:01:49.354Z,14.35
2022-11-16T05:02:11.709Z,14.73
2022-11-16T05:02:33.518Z,14.63
2022-11-16T05:03:00.757Z,14.32
2022-11-16T05:03:23.579Z,13.60
2022-11-16T05:03:45.287Z,13.50
2022-11-16T05:04:06.984Z,14.65
2022-11-16T05:04:29.138Z,15.27
2022-11-16T05:04:50.849Z,14.80
2022-11-16T05:05:13.376Z,14.68
2022-11-16T05:05:35.187Z,14.75
2022-11-16T05:05:57.291Z,15.35
2022-11-16T05:06:19.002Z,14.65
2022-11-16T05:06:40.800Z,14.48
2022-11-16T05:07:02.726Z,14.80
2022-11-16T05:07:25.057Z,14.80
2022-11-16T05:07:46.952Z,14.98
2022-11-16T05:08:09.321Z,15.00
2022-11-16T05:08:31.497Z,15.40
2022-11-16T05:08:53.480Z,15.55
2022-11-16T05:09:15.622Z,15.23
2022-11-16T05:09:42.812Z,14.65
2022-11-16T05:10:06.753Z,14.85
2022-11-16T05:10:28.511Z,14.93
2022-11-16T05:10:53.262Z,15.02
2022-11-16T05:11:14.974Z,15.00
2022-11-16T05:11:36.699Z,15.75
2022-11-16T05:11:58.470Z,14.45
2022-11-16T05:12:24.933Z,13.50
2022-11-16T05:12:47.039Z,14.05
2022-11-16T05:13:08.739Z,14.00
2022-11-16T05:13:30.907Z,13.85
2022-11-16T05:13:52.621Z,13.63
2022-11-16T05:14:14.361Z,13.98
2022-11-16T05:14:36.395Z,13.73
2022-11-16T05:14:58.578Z,12.63
2022-11-16T05:15:20.385Z,12.18
2022-11-16T05:15:45.631Z,11.52
2022-11-16T05:16:07.935Z,11.50
2022-11-16T05:16:30.709Z,11.48
2022-11-16T05:16:52.461Z,11.60
2022-11-16T05:17:14.972Z,11.25
2022-11-16T05:17:36.919Z,11.30
2022-11-16T05:17:58.788Z,11.00
2022-11-16T05:18:20.939Z,11.57
2022-11-16T05:18:43.110Z,11.10
2022-11-16T05:19:23.670Z,10.07
2022-11-16T05:20:04.751Z,10.02
2022-11-16T05:20:45.612Z,10.32
2022-11-16T05:21:07.381Z,10.18
2022-11-16T05:21:29.169Z,10.05
2022-11-16T05:21:50.947Z,9.02
2022-11-16T05:22:12.652Z,9.10
2022-11-16T05:22:35.008Z,8.63
2022-11-16T05:22:57.964Z,9.23
2022-11-16T05:23:38.839Z,8.80
2022-11-16T05:24:19.443Z,8.10
2022-11-16T05:24:41.356Z,7.78
2022-11-16T05:25:04.312Z,7.43
2022-11-16T05:25:26.803Z,7.85
2022-11-16T05:25:48.518Z,7.85
2022-11-16T05:26:10.723Z,7.95
2022-11-16T05:26:32.835Z,8.05
2022-11-16T05:26:54.553Z,7.63
2022-11-16T05:27:18.031Z,7.38
2022-11-16T05:27:39.986Z,6.80
2022-11-16T05:28:03.040Z,7.65
2022-11-16T05:28:24.845Z,7.40
2022-11-16T05:28:46.579Z,7.68
2022-11-16T05:29:08.372Z,8.05
2022-11-16T05:29:31.022Z,7.22
2022-11-16T05:29:53.384Z,8.10
2022-11-16T05:30:15.529Z,7.80
2022-11-16T05:30:37.274Z,7.78
2022-11-16T05:30:58.971Z,7.93
2022-11-16T05:31:20.697Z,8.10
2022-11-16T05:31:42.414Z,7.72
2022-11-16T05:32:04.969Z,7.38
2022-11-16T05:32:27.837Z,7.55
2022-11-16T05:32:49.967Z,8.23
2022-11-16T05:33:11.760Z,8.40
2022-11-16T05:33:33.485Z,7.88
2022-11-16T05:33:55.224Z,7.93
2022-11-16T05:34:17.024Z,7.93
2022-11-16T05:34:38.982Z,8.43
2022-11-16T05:35:00.768Z,8.55
2022-11-16T05:35:24.067Z,7.93
2022-11-16T05:35:45.818Z,8.02
2022-11-16T05:36:08.209Z,8.02
2022-11-16T05:36:30.029Z,7.80
2022-11-16T05:36:51.946Z,7.50
2022-11-16T05:37:13.993Z,7.47
2022-11-16T05:37:35.796Z,7.55
2022-11-16T05:37:57.490Z,7.57
2022-11-16T05:38:20.289Z,7.60
2022-11-16T05:38:42.629Z,7.70